createdAt,value
2018-01-12T00:01:27.098Z,3.60
2018-01-12T00:03:54.740Z,3.55
2018-01-12T00:06:22.335Z,3.49
2018-01-12T00:08:49.901Z,3.49
2018-01-12T00:11:17.443Z,3.58
2018-01-12T00:13:44.981Z,3.41
2018-01-12T00:16:12.538Z,3.45
2018-01-12T00:18:40.103Z,3.51
2018-01-12T00:21:07.663Z,3.50
2018-01-12T00:23:35.186Z,3.38
2018-01-12T00:26:02.718Z,3.45
2018-01-12T00:28:30.360Z,3.45
2018-01-12T00:30:57.899Z,3.42
2018-01-12T00:33:25.430Z,3.23
2018-01-12T00:35:52.961Z,3.29
2018-01-12T00:38:20.489Z,3.19
2018-01-12T00:40:48.004Z,3.24
2018-01-12T00:43:15.541Z,3.20
2018-01-12T00:45:43.088Z,3.28
2018-01-12T00:48:10.613Z,3.13
2018-01-12T00:50:38.133Z,3.14
2018-01-12T00:53:05.662Z,3.27
2018-01-12T00:55:33.186Z,3.21
2018-01-12T00:58:00.719Z,3.27
2018-01-12T01:00:28.246Z,3.35
2018-01-12T01:02:55.776Z,3.21
2018-01-12T01:05:23.300Z,3.29
2018-01-12T01:07:50.885Z,3.33
2018-01-12T01:10:18.415Z,3.35
2018-01-12T01:12:45.943Z,3.28
2018-01-12T01:15:13.556Z,3.33
2018-01-12T01:17:41.080Z,3.39
2018-01-12T01:20:08.620Z,3.41
2018-01-12T01:22:36.148Z,3.37
2018-01-12T01:25:03.672Z,3.33
2018-01-12T01:27:31.201Z,3.23
2018-01-12T01:29:58.726Z,3.31
2018-01-12T01:32:26.246Z,3.26
2018-01-12T01:34:53.809Z,3.19
2018-01-12T01:37:21.333Z,3.27
2018-01-12T01:39:48.862Z,3.25
2018-01-12T01:42:16.381Z,3.22
2018-01-12T01:44:43.909Z,3.26
2018-01-12T01:47:11.435Z,3.23
2018-01-12T01:49:38.962Z,3.38
2018-01-12T01:52:06.513Z,3.20
2018-01-12T01:54:34.119Z,3.27
2018-01-12T01:57:01.645Z,3.34
2018-01-12T01:59:29.181Z,3.36
2018-01-12T02:01:56.715Z,3.39
2018-01-12T02:04:24.348Z,3.49
2018-01-12T02:06:51.873Z,3.53
2018-01-12T02:09:19.417Z,3.49
2018-01-12T02:11:46.968Z,3.43
2018-01-12T02:14:14.501Z,3.30
2018-01-12T02:16:42.026Z,3.43
2018-01-12T02:19:09.553Z,3.36
2018-01-12T02:21:37.145Z,3.32
2018-01-12T02:24:04.737Z,3.37
2018-01-12T02:26:32.265Z,3.29
2018-01-12T02:28:59.790Z,3.21
2018-01-12T02:31:27.412Z,3.34
2018-01-12T02:33:54.937Z,3.32
2018-01-12T02:36:22.469Z,3.21
2018-01-12T02:38:49.996Z,3.18
2018-01-12T02:41:17.522Z,3.21
2018-01-12T02:43:45.114Z,3.19
2018-01-12T02:46:12.635Z,3.25
2018-01-12T02:48:40.237Z,3.21
2018-01-12T02:51:07.762Z,3.25
2018-01-12T02:53:35.322Z,3.22
2018-01-12T02:56:02.917Z,3.23
2018-01-12T02:58:30.443Z,3.28
2018-01-12T03:00:57.972Z,3.32
2018-01-12T03:03:25.591Z,3.32
2018-01-12T03:05:53.121Z,3.24
2018-01-12T03:08:20.654Z,3.24
2018-01-12T03:10:48.178Z,3.27
2018-01-12T03:13:15.706Z,3.25
2018-01-12T03:15:43.234Z,3.25
2018-01-12T03:18:10.784Z,3.27
2018-01-12T03:20:38.306Z,3.09
2018-01-12T03:23:05.831Z,3.15
2018-01-12T03:25:33.358Z,3.06
2018-01-12T03:28:00.990Z,3.11
2018-01-12T03:30:28.518Z,3.12
2018-01-12T03:32:56.110Z,3.09
2018-01-12T03:35:23.672Z,3.17
2018-01-12T03:37:51.197Z,3.09
2018-01-12T03:40:18.777Z,3.02
2018-01-12T03:42:46.351Z,3.09
2018-01-12T03:45:13.900Z,3.18
2018-01-12T03:47:41.460Z,3.13
2018-01-12T03:50:08.990Z,3.02
2018-01-12T03:52:36.518Z,3.12
2018-01-12T03:55:04.051Z,3.06
2018-01-12T03:57:31.573Z,3.15
2018-01-12T03:59:59.162Z,3.09
2018-01-12T04:02:26.729Z,3.05
2018-01-12T04:04:54.257Z,3.11
2018-01-12T04:07:21.806Z,3.09
2018-01-12T04:09:49.338Z,3.13
2018-01-12T04:12:16.868Z,3.02
2018-01-12T04:14:44.397Z,3.09
2018-01-12T04:17:11.919Z,2.97
2018-01-12T04:19:39.448Z,2.92
2018-01-12T04:22:06.978Z,3.07
2018-01-12T04:24:34.511Z,3.07
2018-01-12T04:27:02.124Z,2.92
2018-01-12T04:29:29.684Z,2.81
2018-01-12T04:31:57.212Z,2.85
2018-01-12T04:34:24.801Z,2.83
2018-01-12T04:36:52.322Z,2.76
2018-01-12T04:39:19.854Z,2.75
2018-01-12T04:41:47.383Z,2.74
2018-01-12T04:44:14.918Z,2.79
2018-01-12T04:46:42.442Z,2.80
2018-01-12T04:49:09.970Z,2.80
2018-01-12T04:51:37.623Z,2.77
2018-01-12T04:54:05.152Z,2.85
2018-01-12T04:56:32.738Z,2.78
2018-01-12T04:59:01.253Z,2.87
2018-01-12T05:01:28.786Z,2.68
2018-01-12T05:03:56.301Z,2.83
2018-01-12T05:06:23.834Z,2.67
2018-01-12T05:08:51.362Z,2.73
2018-01-12T05:11:18.896Z,2.72
2018-01-12T05:13:46.439Z,2.59
2018-01-12T05:16:13.970Z,2.72
2018-01-12T05:18:41.506Z,2.75
2018-01-12T05:21:09.026Z,2.77
2018-01-12T05:23:36.544Z,2.74
2018-01-12T05:26:04.065Z,2.68
2018-01-12T05:28:31.589Z,2.73
2018-01-12T05:30:59.121Z,2.61
2018-01-12T05:33:26.657Z,2.63
2018-01-12T05:35:54.186Z,2.63
2018-01-12T05:38:21.776Z,2.60
2018-01-12T05:40:49.305Z,2.66
2018-01-12T05:43:16.867Z,2.71
2018-01-12T05:45:44.425Z,2.67
2018-01-12T05:48:11.951Z,2.65
2018-01-12T05:50:39.478Z,2.62
2018-01-12T05:53:07.033Z,2.59
2018-01-12T05:55:34.562Z,2.64
2018-01-12T05:58:02.090Z,2.55
2018-01-12T06:00:29.711Z,2.58
2018-01-12T06:03:08.940Z,2.58
2018-01-12T06:05:48.382Z,2.52
2018-01-12T06:08:15.913Z,2.59
2018-01-12T06:10:43.437Z,2.59
2018-01-12T06:13:10.967Z,2.51
2018-01-12T06:15:38.520Z,2.45
2018-01-12T06:18:06.045Z,2.47
2018-01-12T06:20:33.574Z,2.61
2018-01-12T06:23:01.088Z,2.53
2018-01-12T06:25:28.606Z,2.56
2018-01-12T06:27:56.136Z,2.58
2018-01-12T06:30:23.656Z,2.47
2018-01-12T06:32:51.179Z,2.44
2018-01-12T06:35:18.697Z,2.46
2018-01-12T06:37:46.215Z,2.50
2018-01-12T06:40:13.770Z,2.52
2018-01-12T06:42:41.301Z,2.45
2018-01-12T06:45:08.831Z,2.43
2018-01-12T06:47:36.368Z,2.40
2018-01-12T06:50:03.901Z,2.44
2018-01-12T06:52:31.417Z,2.45
2018-01-12T06:54:58.937Z,2.51
2018-01-12T06:57:26.465Z,2.40
2018-01-12T06:59:53.990Z,2.41
2018-01-12T07:02:21.505Z,2.28
2018-01-12T07:04:49.037Z,2.40
2018-01-12T07:07:16.564Z,2.28
2018-01-12T07:09:44.085Z,2.28
2018-01-12T07:12:11.632Z,2.27
2018-01-12T07:14:39.182Z,2.36
2018-01-12T07:17:06.707Z,2.25
2018-01-12T07:19:34.230Z,2.21
2018-01-12T07:22:13.639Z,2.20
2018-01-12T07:24:41.166Z,2.23
2018-01-12T07:27:08.704Z,2.25
2018-01-12T07:29:36.277Z,2.31
2018-01-12T07:32:03.800Z,2.59
2018-01-12T07:34:31.358Z,2.71
2018-01-12T07:36:58.923Z,2.52
2018-01-12T07:39:26.445Z,2.35
2018-01-12T07:41:53.974Z,2.43
2018-01-12T07:44:21.501Z,2.49
2018-01-12T07:46:49.035Z,2.47
2018-01-12T07:49:16.556Z,2.43
2018-01-12T07:51:44.117Z,2.54
2018-01-12T07:54:11.670Z,2.42
2018-01-12T07:56:39.192Z,2.50
2018-01-12T07:59:06.708Z,2.48
2018-01-12T08:01:39.889Z,2.54
2018-01-12T08:04:07.414Z,2.50
2018-01-12T08:06:34.939Z,2.53
2018-01-12T08:09:02.460Z,2.46
2018-01-12T08:11:29.991Z,2.49
2018-01-12T08:13:57.549Z,2.64
2018-01-12T08:16:25.073Z,2.63
2018-01-12T08:18:52.590Z,2.58
2018-01-12T08:21:20.161Z,2.58
2018-01-12T08:23:47.680Z,2.56
2018-01-12T08:26:15.282Z,2.49
2018-01-12T08:28:42.815Z,2.50
2018-01-12T08:31:10.404Z,2.54
2018-01-12T08:33:37.926Z,2.61
2018-01-12T08:36:05.453Z,2.52
2018-01-12T08:38:32.975Z,2.50
2018-01-12T08:41:00.528Z,2.55
2018-01-12T08:43:28.052Z,2.59
2018-01-12T08:45:55.579Z,2.58
2018-01-12T08:48:23.215Z,2.59
2018-01-12T08:50:50.746Z,2.58
2018-01-12T08:53:18.264Z,2.66
2018-01-12T08:55:45.800Z,2.53
2018-01-12T08:58:13.322Z,2.50
2018-01-12T09:00:40.915Z,2.68
2018-01-12T09:03:08.433Z,2.62
2018-01-12T09:05:35.961Z,2.58
2018-01-12T09:08:03.477Z,2.70
2018-01-12T09:10:31.088Z,2.73
2018-01-12T09:12:58.590Z,2.72
2018-01-12T09:15:29.077Z,2.60
2018-01-12T09:18:00.419Z,2.71
2018-01-12T09:20:33.810Z,2.66
2018-01-12T09:23:12.214Z,2.62
2018-01-12T09:25:39.737Z,2.63
2018-01-12T09:28:07.319Z,2.60
2018-01-12T09:30:34.842Z,2.65
2018-01-12T09:33:02.405Z,2.65
2018-01-12T09:35:30.003Z,2.72
2018-01-12T09:38:09.298Z,2.77
2018-01-12T09:40:48.145Z,2.71
2018-01-12T09:43:15.672Z,2.73
2018-01-12T09:45:43.388Z,2.69
2018-01-12T09:48:37.677Z,2.55
2018-01-12T09:51:05.200Z,2.69
2018-01-12T09:53:32.788Z,2.68
2018-01-12T09:56:00.364Z,2.75
2018-01-12T09:58:27.882Z,2.73
2018-01-12T10:00:56.298Z,2.71
2018-01-12T10:03:23.818Z,2.75
2018-01-12T10:05:51.361Z,2.85
2018-01-12T10:08:24.806Z,2.86
2018-01-12T10:10:52.329Z,2.66
2018-01-12T10:13:19.850Z,2.90
2018-01-12T10:15:47.368Z,2.77
2018-01-12T10:18:26.709Z,2.78
2018-01-12T10:20:54.230Z,2.82
2018-01-12T10:23:21.755Z,2.80
2018-01-12T10:25:49.270Z,2.61
2018-01-12T10:28:19.484Z,2.65
2018-01-12T10:30:59.644Z,2.74
2018-01-12T10:33:42.724Z,2.91
2018-01-12T10:36:10.245Z,2.85
2018-01-12T10:38:37.772Z,2.81
2018-01-12T10:41:17.974Z,2.86
2018-01-12T10:43:45.493Z,2.89
2018-01-12T10:46:28.744Z,2.83
2018-01-12T10:48:57.195Z,2.79
2018-01-12T10:51:36.797Z,2.92
2018-01-12T10:54:04.322Z,2.77
2018-01-12T10:56:31.837Z,2.80
2018-01-12T10:58:59.465Z,2.78
2018-01-12T11:01:26.991Z,2.76
2018-01-12T11:03:54.517Z,2.85
2018-01-12T11:06:22.144Z,2.72
2018-01-12T11:08:49.700Z,2.74
2018-01-12T11:11:17.220Z,2.73
2018-01-12T11:13:45.744Z,2.83
2018-01-12T11:16:13.301Z,2.71
2018-01-12T11:18:40.836Z,2.72
2018-01-12T11:21:08.356Z,2.66
2018-01-12T11:23:35.872Z,2.73
2018-01-12T11:26:03.400Z,2.81
2018-01-12T11:28:30.919Z,2.79
2018-01-12T11:30:58.461Z,2.84
2018-01-12T11:33:25.980Z,2.87
2018-01-12T11:35:53.500Z,2.78
2018-01-12T11:38:21.022Z,2.93
2018-01-12T11:40:48.554Z,2.97
2018-01-12T11:43:16.081Z,2.89
2018-01-12T11:45:43.719Z,2.90
2018-01-12T11:48:11.279Z,2.80
2018-01-12T11:50:38.798Z,2.93
2018-01-12T11:53:06.407Z,2.98
2018-01-12T11:55:33.924Z,3.04
2018-01-12T11:58:01.467Z,3.00
2018-01-12T12:00:29.008Z,2.85
2018-01-12T12:02:56.536Z,2.83
2018-01-12T12:05:24.052Z,2.98
2018-01-12T12:07:51.583Z,2.80
2018-01-12T12:10:19.102Z,2.83
2018-01-12T12:12:46.661Z,2.91
2018-01-12T12:15:14.231Z,2.83
2018-01-12T12:17:41.781Z,2.95
2018-01-12T12:20:09.305Z,2.99
2018-01-12T12:22:36.845Z,2.87
2018-01-12T12:25:04.468Z,2.88
2018-01-12T12:27:32.001Z,2.91
2018-01-12T12:29:59.532Z,2.82
2018-01-12T12:32:27.120Z,2.94
2018-01-12T12:34:54.725Z,2.90
2018-01-12T12:37:22.246Z,2.83
2018-01-12T12:39:49.761Z,2.80
2018-01-12T12:42:17.291Z,2.82
2018-01-12T12:44:44.865Z,2.87
2018-01-12T12:47:12.386Z,2.85
2018-01-12T12:49:40.076Z,2.82
2018-01-12T12:52:07.595Z,2.68
2018-01-12T12:54:35.148Z,2.79
2018-01-12T12:57:02.739Z,2.72
2018-01-12T12:59:30.261Z,2.76
2018-01-12T13:01:57.773Z,2.82
2018-01-12T13:04:25.301Z,2.72
2018-01-12T13:06:52.891Z,2.69
2018-01-12T13:09:20.451Z,2.63
2018-01-12T13:11:48.007Z,2.64
2018-01-12T13:14:15.585Z,2.78
2018-01-12T13:16:43.106Z,2.79
2018-01-12T13:19:10.634Z,2.77
2018-01-12T13:21:38.166Z,2.83
2018-01-12T13:24:05.686Z,2.75
2018-01-12T13:26:33.208Z,2.77
2018-01-12T13:29:00.824Z,2.74
2018-01-12T13:31:28.341Z,2.83
2018-01-12T13:33:55.869Z,2.81
2018-01-12T13:36:23.380Z,2.75
2018-01-12T13:38:50.966Z,2.74
2018-01-12T13:41:18.496Z,2.82
2018-01-12T13:43:46.021Z,2.80
2018-01-12T13:46:13.596Z,2.92
2018-01-12T13:48:41.106Z,2.95
2018-01-12T13:51:08.666Z,2.82
2018-01-12T13:53:36.213Z,2.79
2018-01-12T13:56:03.755Z,2.82
2018-01-12T13:58:31.285Z,2.81
2018-01-12T14:00:58.808Z,2.82
2018-01-12T14:03:26.335Z,2.84
2018-01-12T14:05:53.879Z,2.94
2018-01-12T14:08:21.401Z,2.90
2018-01-12T14:10:49.065Z,2.98
2018-01-12T14:13:16.598Z,2.87
2018-01-12T14:15:44.224Z,2.82
2018-01-12T14:18:11.822Z,2.84
2018-01-12T14:20:39.336Z,2.74
2018-01-12T14:23:06.866Z,2.77
2018-01-12T14:25:34.402Z,2.86
2018-01-12T14:28:01.931Z,2.83
2018-01-12T14:30:29.451Z,2.88
2018-01-12T14:32:56.968Z,2.85
2018-01-12T14:35:24.492Z,2.86
2018-01-12T14:37:52.022Z,2.84
2018-01-12T14:40:19.541Z,2.82
2018-01-12T14:42:47.112Z,2.81
2018-01-12T14:45:14.640Z,2.74
2018-01-12T14:47:42.237Z,2.79
2018-01-12T14:50:09.791Z,2.82
2018-01-12T14:52:37.351Z,2.82
2018-01-12T14:55:04.932Z,2.87
2018-01-12T14:57:32.567Z,2.82
2018-01-12T15:00:00.091Z,2.87
2018-01-12T15:02:27.634Z,2.84
2018-01-12T15:04:55.213Z,2.89
2018-01-12T15:07:22.712Z,2.90
2018-01-12T15:09:50.233Z,2.79
2018-01-12T15:12:17.760Z,2.67
2018-01-12T15:14:45.290Z,2.65
2018-01-12T15:17:12.813Z,2.82
2018-01-12T15:19:40.365Z,2.77
2018-01-12T15:22:07.907Z,2.77
2018-01-12T15:24:35.536Z,2.70
2018-01-12T15:27:03.049Z,2.72
2018-01-12T15:29:30.654Z,2.83
2018-01-12T15:31:58.171Z,2.75
2018-01-12T15:34:25.729Z,2.80
2018-01-12T15:36:53.258Z,2.78
2018-01-12T15:39:20.894Z,2.77
2018-01-12T15:41:48.776Z,2.76
2018-01-12T15:44:16.321Z,2.69
2018-01-12T15:46:43.850Z,2.64
2018-01-12T15:49:11.369Z,2.61
2018-01-12T15:51:38.891Z,2.66
2018-01-12T15:54:06.413Z,2.63
2018-01-12T15:56:33.944Z,2.64
2018-01-12T15:59:01.473Z,2.67
2018-01-12T16:01:28.995Z,2.66
2018-01-12T16:03:56.558Z,2.65
2018-01-12T16:06:24.114Z,2.69
2018-01-12T16:08:51.705Z,2.68
2018-01-12T16:11:19.249Z,2.61
2018-01-12T16:13:46.774Z,2.55
2018-01-12T16:16:14.361Z,2.55
2018-01-12T16:18:41.918Z,2.64
2018-01-12T16:21:09.525Z,2.69
2018-01-12T16:23:37.090Z,2.70
2018-01-12T16:26:04.633Z,2.65
2018-01-12T16:28:32.164Z,2.52
2018-01-12T16:30:59.744Z,2.55
2018-01-12T16:33:27.261Z,2.63
2018-01-12T16:35:54.778Z,2.62
2018-01-12T16:38:22.320Z,2.68
2018-01-12T16:40:49.852Z,2.74
2018-01-12T16:43:17.422Z,2.81
2018-01-12T16:45:44.952Z,2.84
2018-01-12T16:48:12.574Z,2.65
2018-01-12T16:50:40.104Z,2.61
2018-01-12T16:53:07.626Z,2.68
2018-01-12T16:55:35.147Z,2.59
2018-01-12T16:58:02.676Z,2.54
2018-01-12T17:00:30.202Z,2.60
2018-01-12T17:02:57.821Z,2.62
2018-01-12T17:05:25.341Z,2.57
2018-01-12T17:07:52.878Z,2.57
2018-01-12T17:10:20.616Z,2.59
2018-01-12T17:12:48.133Z,2.61
2018-01-12T17:15:15.675Z,2.58
2018-01-12T17:17:43.217Z,2.59
2018-01-12T17:20:10.761Z,2.62
2018-01-12T17:22:38.286Z,2.67
2018-01-12T17:25:05.875Z,2.75
2018-01-12T17:27:33.410Z,2.73
2018-01-12T17:30:00.964Z,2.72
2018-01-12T17:32:28.571Z,2.67
2018-01-12T17:34:56.098Z,2.71
2018-01-12T17:37:23.625Z,2.59
2018-01-12T17:39:51.162Z,2.62
2018-01-12T17:42:18.792Z,2.62
2018-01-12T17:44:46.330Z,2.70
2018-01-12T17:47:13.853Z,2.57
2018-01-12T17:49:41.370Z,2.61
2018-01-12T17:52:08.905Z,2.63
2018-01-12T17:54:36.420Z,2.69
2018-01-12T17:57:03.949Z,2.74
2018-01-12T17:59:31.487Z,2.61
2018-01-12T18:01:59.068Z,2.69
2018-01-12T18:04:26.597Z,2.78
2018-01-12T18:06:54.142Z,2.67
2018-01-12T18:09:21.758Z,2.72
2018-01-12T18:11:49.306Z,2.68
2018-01-12T18:14:16.863Z,2.70
2018-01-12T18:16:44.487Z,2.72
2018-01-12T18:19:12.105Z,2.67
2018-01-12T18:21:39.635Z,2.61
2018-01-12T18:24:07.160Z,2.74
2018-01-12T18:26:34.776Z,2.78
2018-01-12T18:29:02.314Z,2.69
2018-01-12T18:31:29.999Z,2.69
2018-01-12T18:33:57.541Z,2.62
2018-01-12T18:36:25.077Z,2.55
2018-01-12T18:38:52.638Z,2.67
2018-01-12T18:41:20.400Z,2.75
2018-01-12T18:43:47.944Z,2.61
2018-01-12T18:46:15.472Z,2.56
2018-01-12T18:48:42.997Z,2.56
2018-01-12T18:51:10.528Z,2.65
2018-01-12T18:53:38.060Z,2.60
2018-01-12T18:56:05.573Z,2.59
2018-01-12T18:58:33.107Z,2.54
2018-01-12T19:01:00.637Z,2.53
2018-01-12T19:03:28.169Z,2.56
2018-01-12T19:05:55.798Z,2.54
2018-01-12T19:08:23.324Z,2.57
2018-01-12T19:10:50.962Z,2.69
2018-01-12T19:13:18.500Z,2.64
2018-01-12T19:15:46.017Z,2.68
2018-01-12T19:18:13.633Z,2.57
2018-01-12T19:20:41.213Z,2.54
2018-01-12T19:23:08.765Z,2.48
2018-01-12T19:25:36.297Z,2.50
2018-01-12T19:28:03.847Z,2.58
2018-01-12T19:30:31.437Z,2.51
2018-01-12T19:32:58.962Z,2.51
2018-01-12T19:35:26.599Z,2.54
2018-01-12T19:37:54.489Z,2.60
2018-01-12T19:40:22.018Z,2.60
2018-01-12T19:42:49.645Z,2.52
2018-01-12T19:45:17.208Z,2.52
2018-01-12T19:47:44.746Z,2.57
2018-01-12T19:50:12.289Z,2.50
2018-01-12T19:52:39.831Z,2.52
2018-01-12T19:55:07.449Z,2.61
2018-01-12T19:57:35.217Z,2.54
2018-01-12T20:00:02.768Z,2.51
2018-01-12T20:02:30.287Z,2.50
2018-01-12T20:04:57.958Z,2.44
2018-01-12T20:07:25.703Z,2.46
2018-01-12T20:09:53.377Z,2.40
2018-01-12T20:12:21.054Z,2.47
2018-01-12T20:14:49.239Z,2.52
2018-01-12T20:17:16.787Z,2.37
2018-01-12T20:19:44.413Z,2.35
2018-01-12T20:22:12.028Z,2.41
2018-01-12T20:24:39.562Z,2.53
2018-01-12T20:27:07.090Z,2.45
2018-01-12T20:29:34.654Z,2.52
2018-01-12T20:32:02.181Z,2.51
2018-01-12T20:34:29.710Z,2.46
2018-01-12T20:36:57.234Z,2.55
2018-01-12T20:39:24.777Z,2.44
2018-01-12T20:41:52.341Z,2.46
2018-01-12T20:44:19.867Z,2.47
2018-01-12T20:46:47.598Z,2.43
2018-01-12T20:49:15.122Z,2.42
2018-01-12T20:51:42.776Z,2.49
2018-01-12T20:54:10.317Z,2.51
2018-01-12T20:56:37.836Z,2.39
2018-01-12T20:59:05.418Z,2.34
2018-01-12T21:01:32.963Z,2.29
2018-01-12T21:04:00.548Z,2.37
2018-01-12T21:06:28.250Z,2.25
2018-01-12T21:08:55.806Z,2.32
2018-01-12T21:11:23.354Z,2.30
2018-01-12T21:13:50.882Z,2.30
2018-01-12T21:16:18.506Z,2.28
2018-01-12T21:18:46.218Z,2.26
2018-01-12T21:21:13.747Z,2.23
2018-01-12T21:23:41.347Z,2.20
2018-01-12T21:26:08.865Z,2.21
2018-01-12T21:28:36.406Z,2.30
2018-01-12T21:31:04.055Z,2.22
2018-01-12T21:33:31.685Z,2.18
2018-01-12T21:35:59.226Z,2.24
2018-01-12T21:38:27.723Z,2.29
2018-01-12T21:40:57.441Z,2.26
2018-01-12T21:43:25.010Z,2.25
2018-01-12T21:45:53.594Z,2.25
2018-01-12T21:48:21.141Z,2.14
2018-01-12T21:50:48.730Z,2.18
2018-01-12T21:53:16.240Z,2.16
2018-01-12T21:55:43.820Z,2.20
2018-01-12T21:58:11.357Z,2.27
2018-01-12T22:00:38.967Z,2.31
2018-01-12T22:03:06.797Z,2.28
2018-01-12T22:05:34.370Z,2.25
2018-01-12T22:08:01.979Z,2.12
2018-01-12T22:10:29.511Z,2.17
2018-01-12T22:12:57.136Z,2.25
2018-01-12T22:15:24.666Z,2.10
2018-01-12T22:17:52.195Z,2.13
2018-01-12T22:20:19.740Z,2.07
2018-01-12T22:22:47.264Z,2.06
2018-01-12T22:25:14.811Z,2.07
2018-01-12T22:27:42.523Z,2.13
2018-01-12T22:30:10.045Z,2.03
2018-01-12T22:32:37.621Z,1.95
2018-01-12T22:35:05.198Z,1.99
2018-01-12T22:37:32.786Z,2.03
2018-01-12T22:40:00.308Z,2.03
2018-01-12T22:42:27.851Z,2.01
2018-01-12T22:44:55.400Z,2.01
2018-01-12T22:47:22.968Z,2.10
2018-01-12T22:49:50.533Z,2.06
2018-01-12T22:52:18.136Z,2.09
2018-01-12T22:54:45.690Z,1.98
2018-01-12T22:57:13.255Z,2.10
2018-01-12T22:59:40.788Z,2.04
2018-01-12T23:02:08.340Z,2.06
2018-01-12T23:04:35.874Z,1.96
2018-01-12T23:07:03.574Z,1.94
2018-01-12T23:09:31.852Z,1.96
2018-01-12T23:11:59.391Z,1.92
2018-01-12T23:14:26.922Z,1.98
2018-01-12T23:16:54.453Z,1.94
2018-01-12T23:19:22.189Z,1.81
2018-01-12T23:21:49.761Z,1.81
2018-01-12T23:24:17.411Z,1.90
2018-01-12T23:26:44.936Z,1.90
2018-01-12T23:29:12.530Z,1.94
2018-01-12T23:31:40.139Z,1.95
2018-01-12T23:34:07.740Z,1.96
2018-01-12T23:36:35.281Z,1.89
2018-01-12T23:39:02.885Z,1.81
2018-01-12T23:41:30.482Z,1.78
2018-01-12T23:43:58.090Z,1.73
2018-01-12T23:46:25.709Z,1.79
2018-01-12T23:48:53.252Z,1.78
2018-01-12T23:51:20.889Z,1.80
2018-01-12T23:53:48.449Z,1.82
2018-01-12T23:56:15.997Z,1.78
2018-01-12T23:58:43.528Z,1.70
